Platte Woods, Missouri
Current Conditions -  °F | °C
As of 6:54 AM on Thursday 27 Nov 2014 (Local Time) from KMKC Reporting Station
Overcast Overcast  
Wind Chill: 18°   Ceiling: 1700
Heat Index: 27°   Visibility: 10mi
Dew Point: 19°   Wind: 9mph
Humidity: 72%   Direction: 360°N
Pressure: 30.51"   Gusts: NA
Location:  39.2125°N, 94.6296°W
Report Text: KMKC 271254Z 36008KT 10SM OVC017 M03/M07 A3051 RMK AO2 SLP340 T10281072
Loading
Personal Weather Stations






























Interactive Weather Map New forecast layout! Learn more

10-Day Weather Forecast

Advertisements
Track Severe Weather on mobile